createdAt,value
2023-05-09T03:05:14.612Z,0
2023-05-09T03:10:15.570Z,0
2023-05-09T03:15:16.744Z,0
2023-05-09T03:20:18.272Z,0
2023-05-09T03:25:20.469Z,0
2023-05-09T03:30:21.304Z,0
2023-05-09T03:35:22.446Z,0
2023-05-09T03:40:23.287Z,0
2023-05-09T03:45:24.096Z,0
2023-05-09T03:50:24.908Z,0
2023-05-09T03:55:26.267Z,0
2023-05-09T04:00:27.108Z,0
2023-05-09T04:05:28.005Z,0
2023-05-09T04:10:29.384Z,0
2023-05-09T04:15:30.569Z,0
2023-05-09T04:20:31.401Z,0
2023-05-09T04:25:32.269Z,0
2023-05-09T04:30:33.153Z,0
2023-05-09T04:35:34.287Z,0
2023-05-09T04:40:35.469Z,0
2023-05-09T04:45:36.347Z,32.6
2023-05-09T04:50:37.182Z,36.8
2023-05-09T04:55:39.352Z,48
2023-05-09T05:00:40.274Z,59.3
2023-05-09T05:05:41.303Z,63.8
2023-05-09T05:10:42.154Z,63.8
2023-05-09T05:15:44.025Z,67.4
2023-05-09T05:20:44.912Z,63.4
2023-05-09T05:25:45.812Z,67.2
2023-05-09T05:30:46.979Z,68.6
2023-05-09T05:35:47.854Z,72.1
2023-05-09T05:40:48.978Z,88.2
2023-05-09T05:45:49.930Z,94.6
2023-05-09T05:50:51.646Z,95.2
2023-05-09T05:55:52.943Z,110.4
2023-05-09T06:00:54.366Z,118.6
2023-05-09T06:05:57.679Z,97.1
2023-05-09T06:10:58.661Z,71.2
2023-05-09T06:16:07.790Z,117.3
2023-05-09T06:21:12.463Z,98.5
2023-05-09T06:26:13.551Z,86.7
2023-05-09T06:31:14.461Z,89.5
2023-05-09T06:36:15.639Z,116.4
2023-05-09T06:41:16.553Z,133
2023-05-09T06:46:17.724Z,159
2023-05-09T06:51:18.855Z,166.9
2023-05-09T06:56:20.151Z,198.2
2023-05-09T07:01:21.218Z,187.7
2023-05-09T07:06:22.106Z,202
2023-05-09T07:11:23.298Z,165.5
2023-05-09T07:16:27.140Z,167.7
2023-05-09T07:21:28.089Z,141.1
2023-05-09T07:26:29.008Z,153.8
2023-05-09T07:31:29.869Z,166.7
2023-05-09T07:36:30.979Z,220.7
2023-05-09T07:41:31.859Z,219.7
2023-05-09T07:46:32.741Z,222.2
2023-05-09T07:51:33.577Z,187.6
2023-05-09T07:56:34.458Z,209.6
2023-05-09T08:01:35.358Z,180.5
2023-05-09T08:06:36.448Z,216.7
2023-05-09T08:11:37.358Z,171.7
2023-05-09T08:16:38.326Z,118.4
2023-05-09T08:21:39.210Z,113.3
2023-05-09T08:26:40.294Z,153.9
2023-05-09T08:31:41.465Z,175.4
2023-05-09T08:36:42.466Z,171.7
2023-05-09T08:41:43.427Z,160.4
2023-05-09T08:46:44.474Z,165.4
2023-05-09T08:51:45.635Z,179.3
2023-05-09T08:56:46.526Z,174
2023-05-09T09:01:47.979Z,156.7
2023-05-09T09:06:48.974Z,203.9
2023-05-09T09:11:49.973Z,176.9
2023-05-09T09:16:51.067Z,197.8
2023-05-09T09:21:52.549Z,309.3
2023-05-09T09:26:53.672Z,283.1
2023-05-09T09:31:55.439Z,440.4
2023-05-09T09:36:56.518Z,256.7
2023-05-09T09:41:57.734Z,244.3
2023-05-09T09:46:58.584Z,216.1
2023-05-09T09:52:00.762Z,243.2
2023-05-09T09:57:04.225Z,245.5
2023-05-09T10:02:08.012Z,257.9
2023-05-09T10:07:11.560Z,292.8
2023-05-09T10:12:15.380Z,514.4
2023-05-09T10:22:22.148Z,530.6
2023-05-09T10:27:24.044Z,310.5
2023-05-09T10:32:25.020Z,427.9
2023-05-09T10:37:25.942Z,430.9
2023-05-09T10:42:26.923Z,551.5
2023-05-09T10:47:27.829Z,472.9
2023-05-09T10:52:28.742Z,265.1
2023-05-09T10:57:29.914Z,529
2023-05-09T11:02:33.361Z,391.4
2023-05-09T11:07:34.430Z,368.6
2023-05-09T11:12:37.394Z,607.3
2023-05-09T11:17:38.465Z,425.3
2023-05-09T11:22:39.894Z,483.9
2023-05-09T11:27:40.878Z,493.9
2023-05-09T11:32:44.273Z,416.8
2023-05-09T11:37:45.317Z,408.7
2023-05-09T11:42:46.376Z,300
2023-05-09T11:47:49.464Z,277
2023-05-09T11:52:51.866Z,258.3
2023-05-09T11:57:52.956Z,270.2
2023-05-09T12:02:54.323Z,272.1
2023-05-09T12:07:57.274Z,308.6
2023-05-09T12:12:58.842Z,281.7
2023-05-09T12:18:00.238Z,237.4
2023-05-09T12:23:01.786Z,239
2023-05-09T12:28:02.913Z,244.9
2023-05-09T12:33:04.384Z,198.3
2023-05-09T12:38:06.489Z,154.1
2023-05-09T12:43:08.903Z,136.7
2023-05-09T12:48:10.509Z,210.6
2023-05-09T12:53:11.774Z,293.9
2023-05-09T12:58:13.048Z,345.4
2023-05-09T13:03:14.482Z,336.3
2023-05-09T13:08:15.908Z,337.8
2023-05-09T13:13:16.992Z,243.9
2023-05-09T13:18:18.056Z,240.5
2023-05-09T13:23:20.166Z,184
2023-05-09T13:28:21.490Z,128.1
2023-05-09T13:33:25.676Z,101.1
2023-05-09T13:38:29.370Z,103.3
2023-05-09T13:43:30.863Z,122.1
2023-05-09T13:48:31.812Z,172.5
2023-05-09T13:58:38.116Z,179.4
2023-05-09T14:03:39.334Z,239.8
2023-05-09T14:08:41.093Z,296.9
2023-05-09T14:13:42.215Z,385.1
2023-05-09T14:18:44.310Z,437.1
2023-05-09T14:23:46.939Z,357.2
2023-05-09T14:28:48.240Z,302.5
2023-05-09T14:33:50.017Z,249
2023-05-09T14:38:51.666Z,250.8
2023-05-09T14:43:52.888Z,250.4
2023-05-09T14:48:54.729Z,252.5
2023-05-09T14:53:56.094Z,240.3
2023-05-09T14:58:57.230Z,215.8
2023-05-09T15:03:58.987Z,199
2023-05-09T15:09:00.914Z,175.5
2023-05-09T15:14:01.930Z,141.3
2023-05-09T15:19:05.133Z,107.3
2023-05-09T15:24:07.405Z,118.8
2023-05-09T15:29:08.938Z,138.2
2023-05-09T15:34:11.069Z,131.1
2023-05-09T15:39:12.027Z,112.5
2023-05-09T15:44:12.971Z,112.5
2023-05-09T15:49:16.480Z,103.3
2023-05-09T15:54:17.768Z,105.9
2023-05-09T15:59:18.760Z,98.5
2023-05-09T16:04:22.963Z,95.1
2023-05-09T16:09:24.448Z,96.3
2023-05-09T16:14:26.604Z,87.1
2023-05-09T16:19:28.093Z,83.7
2023-05-09T16:24:29.290Z,79
2023-05-09T16:29:30.219Z,75.6
2023-05-09T16:34:31.128Z,70
2023-05-09T16:39:32.076Z,65.8
2023-05-09T16:44:33.084Z,56.7
2023-05-09T16:49:34.228Z,44.7
2023-05-09T16:54:35.484Z,35.9
2023-05-09T16:59:36.693Z,32.6
2023-05-09T17:04:40.184Z,25.8
2023-05-09T17:09:41.514Z,25.4
2023-05-09T17:14:42.455Z,25.7
2023-05-09T17:19:43.584Z,20.7
2023-05-09T17:24:44.494Z,20.3
2023-05-09T17:34:50.562Z,15.5
2023-05-09T17:39:51.565Z,12.7
2023-05-09T17:44:52.613Z,15
2023-05-09T17:49:54.147Z,16.7
2023-05-09T17:54:55.085Z,17.2
2023-05-09T17:59:56.294Z,16.1
2023-05-09T18:04:58.050Z,14.2
2023-05-09T18:09:59.347Z,13.3
2023-05-09T18:15:09.130Z,13.3
2023-05-09T18:20:11.836Z,12.3
2023-05-09T18:25:13.483Z,10.7
2023-05-09T18:30:18.089Z,9.3
2023-05-09T18:35:19.557Z,8.8
2023-05-09T18:40:21.124Z,9.4
2023-05-09T18:45:22.844Z,9.5
2023-05-09T18:50:25.210Z,7
2023-05-09T18:55:26.746Z,5.3
2023-05-09T19:00:29.890Z,5.1
2023-05-09T19:05:30.823Z,3.3
2023-05-09T19:10:31.932Z,3.3
2023-05-09T19:15:36.232Z,3.3
2023-05-09T19:20:37.635Z,3.3
2023-05-09T19:25:38.609Z,3.3
2023-05-09T19:30:40.814Z,3.3
2023-05-09T19:35:45.671Z,3.3
2023-05-09T19:40:50.422Z,3.3
2023-05-09T19:45:51.532Z,3.3
2023-05-09T19:50:53.458Z,0
2023-05-09T19:55:55.045Z,0
